createdAt,value
2016-10-09T00:00:26.313Z,0
2016-10-09T00:01:25.687Z,0
2016-10-09T00:02:26.226Z,0
2016-10-09T00:03:25.890Z,0
2016-10-09T00:04:26.163Z,0
2016-10-09T00:05:26.125Z,0
2016-10-09T00:06:26.088Z,0
2016-10-09T00:07:26.042Z,0
2016-10-09T00:08:26.005Z,0
2016-10-09T00:09:25.658Z,0
2016-10-09T00:10:25.944Z,0
2016-10-09T00:11:25.888Z,0
2016-10-09T00:12:25.851Z,0
2016-10-09T00:13:25.811Z,0
2016-10-09T00:14:25.765Z,0
2016-10-09T00:15:25.728Z,0
2016-10-09T00:16:25.392Z,0
2016-10-09T00:17:25.664Z,0
2016-10-09T00:18:25.314Z,0
2016-10-09T00:19:25.277Z,0
2016-10-09T00:20:25.239Z,0
2016-10-09T00:21:24.906Z,0
2016-10-09T00:22:25.460Z,0
2016-10-09T00:23:25.423Z,0
2016-10-09T00:24:25.082Z,0
2016-10-09T00:25:25.341Z,0
2016-10-09T00:26:24.707Z,0
2016-10-09T00:27:25.265Z,0
2016-10-09T00:28:24.927Z,0
2016-10-09T00:29:25.189Z,0
2016-10-09T00:30:24.846Z,0
2016-10-09T00:31:25.118Z,0
2016-10-09T00:32:25.076Z,0
2016-10-09T00:33:24.735Z,0
2016-10-09T00:34:24.391Z,0
2016-10-09T00:35:24.656Z,0
2016-10-09T00:36:24.920Z,0
2016-10-09T00:37:24.883Z,0
2016-10-09T00:38:24.841Z,0
2016-10-09T00:39:24.803Z,0
2016-10-09T00:40:24.767Z,0
2016-10-09T00:41:24.430Z,0
2016-10-09T00:42:24.386Z,0
2016-10-09T00:43:24.346Z,0
2016-10-09T00:44:24.613Z,0
2016-10-09T00:45:24.576Z,0
2016-10-09T00:46:24.231Z,0
2016-10-09T00:47:23.892Z,0
2016-10-09T00:48:24.154Z,0
2016-10-09T00:49:24.417Z,0
2016-10-09T00:50:24.396Z,0
2016-10-09T00:51:24.034Z,0
2016-10-09T00:52:24.305Z,0
2016-10-09T00:53:24.260Z,0
2016-10-09T00:54:24.227Z,0
2016-10-09T00:55:24.191Z,0
2016-10-09T00:56:23.845Z,0
2016-10-09T00:57:23.807Z,0
2016-10-09T00:58:23.469Z,0
2016-10-09T00:59:24.032Z,0
2016-10-09T01:00:23.389Z,0
2016-10-09T01:01:23.952Z,0
2016-10-09T01:02:23.314Z,0
2016-10-09T01:03:23.581Z,0
2016-10-09T01:04:23.837Z,0
2016-10-09T01:05:23.804Z,0
2016-10-09T01:06:23.478Z,0
2016-10-09T01:07:23.418Z,0
2016-10-09T01:08:23.682Z,0
2016-10-09T01:09:23.039Z,0
2016-10-09T01:10:23.307Z,0
2016-10-09T01:11:23.267Z,0
2016-10-09T01:12:23.527Z,0
2016-10-09T01:13:23.486Z,0
2016-10-09T01:14:23.451Z,0
2016-10-09T01:15:23.410Z,0
2016-10-09T01:16:23.370Z,0
2016-10-09T01:17:23.034Z,0
2016-10-09T01:18:23.303Z,0
2016-10-09T01:19:22.958Z,0
2016-10-09T01:20:22.918Z,0
2016-10-09T01:21:23.186Z,0
2016-10-09T01:22:23.137Z,0
2016-10-09T01:23:22.805Z,0
2016-10-09T01:24:23.062Z,0
2016-10-09T01:25:22.727Z,0
2016-10-09T01:26:22.684Z,0
2016-10-09T01:27:22.948Z,0
2016-10-09T01:28:22.024Z,0
2016-10-09T01:29:22.563Z,0
2016-10-09T01:30:22.531Z,0
2016-10-09T01:31:22.794Z,0
2016-10-09T01:32:22.756Z,0
2016-10-09T01:33:22.725Z,0
2016-10-09T01:34:22.375Z,0
2016-10-09T01:35:22.638Z,0
2016-10-09T01:36:21.995Z,0
2016-10-09T01:37:22.256Z,0
2016-10-09T01:38:22.523Z,0
2016-10-09T01:39:22.489Z,0
2016-10-09T01:40:22.446Z,0
2016-10-09T01:41:22.406Z,0
2016-10-09T01:42:22.367Z,0
2016-10-09T01:43:22.026Z,0
2016-10-09T01:44:22.291Z,0
2016-10-09T01:45:22.247Z,0
2016-10-09T01:46:21.916Z,0
2016-10-09T01:47:22.179Z,0
2016-10-09T01:48:22.144Z,0
2016-10-09T01:49:22.109Z,0
2016-10-09T01:50:22.062Z,0
2016-10-09T01:51:21.717Z,0
2016-10-09T01:52:21.978Z,0
2016-10-09T01:53:21.943Z,0
2016-10-09T01:54:21.609Z,0
2016-10-09T01:55:21.568Z,0
2016-10-09T01:56:21.529Z,0
2016-10-09T01:57:21.785Z,0
2016-10-09T01:58:21.459Z,0
2016-10-09T01:59:21.419Z,0
2016-10-09T02:00:21.665Z,0
2016-10-09T02:01:21.356Z,0
2016-10-09T02:02:21.604Z,0
2016-10-09T02:03:21.562Z,0
2016-10-09T02:04:21.512Z,0
2016-10-09T02:05:21.187Z,0
2016-10-09T02:06:21.437Z,0
2016-10-09T02:07:21.406Z,0
2016-10-09T02:08:21.359Z,0
2016-10-09T02:09:21.322Z,0
2016-10-09T02:10:21.001Z,0
2016-10-09T02:11:20.643Z,0
2016-10-09T02:12:21.203Z,0
2016-10-09T02:13:20.868Z,0
2016-10-09T02:14:21.129Z,0
2016-10-09T02:15:20.482Z,0
2016-10-09T02:16:21.047Z,0
2016-10-09T02:17:21.011Z,0
2016-10-09T02:18:20.687Z,0
2016-10-09T02:19:20.937Z,0
2016-10-09T02:20:20.899Z,0
2016-10-09T02:21:20.563Z,0
2016-10-09T02:22:20.816Z,0
2016-10-09T02:23:20.774Z,0
2016-10-09T02:24:20.439Z,0
2016-10-09T02:25:20.698Z,0
2016-10-09T02:26:20.659Z,0
2016-10-09T02:27:20.623Z,0
2016-10-09T02:28:20.590Z,0
2016-10-09T02:29:20.240Z,0
2016-10-09T02:30:20.506Z,0
2016-10-09T02:31:20.162Z,0
2016-10-09T02:32:20.427Z,0
2016-10-09T02:33:20.389Z,0
2016-10-09T02:34:20.353Z,0
2016-10-09T02:35:20.313Z,0
2016-10-09T02:36:19.973Z,0
2016-10-09T02:37:20.230Z,0
2016-10-09T02:38:20.197Z,0
2016-10-09T02:39:20.155Z,0
2016-10-09T02:40:20.118Z,0
2016-10-09T02:41:20.077Z,0
2016-10-09T02:42:19.741Z,0
2016-10-09T02:43:19.696Z,0
2016-10-09T02:44:19.962Z,0
2016-10-09T02:45:19.923Z,0
2016-10-09T02:46:19.882Z,0
2016-10-09T02:47:19.240Z,0
2016-10-09T02:48:19.213Z,0
2016-10-09T02:49:19.763Z,0
2016-10-09T02:50:19.428Z,0
2016-10-09T02:51:19.711Z,0
2016-10-09T02:52:19.650Z,0
2016-10-09T02:53:19.624Z,0
2016-10-09T02:54:19.572Z,0
2016-10-09T02:55:19.535Z,0
2016-10-09T02:56:19.500Z,0
2016-10-09T02:57:19.474Z,0
2016-10-09T02:58:19.417Z,0
2016-10-09T02:59:19.381Z,0
2016-10-09T03:00:19.337Z,0
2016-10-09T03:01:18.996Z,0
2016-10-09T03:02:19.261Z,0
2016-10-09T03:03:19.247Z,0
2016-10-09T03:04:19.182Z,0
2016-10-09T03:05:18.841Z,0
2016-10-09T03:06:19.103Z,0
2016-10-09T03:07:18.771Z,0
2016-10-09T03:08:19.030Z,0
2016-10-09T03:09:18.989Z,0
2016-10-09T03:10:18.949Z,0
2016-10-09T03:11:18.611Z,0
2016-10-09T03:12:18.874Z,0
2016-10-09T03:13:18.538Z,0
2016-10-09T03:14:18.792Z,0
2016-10-09T03:15:18.457Z,0
2016-10-09T03:16:18.733Z,0
2016-10-09T03:17:18.671Z,0
2016-10-09T03:18:18.639Z,0
2016-10-09T03:19:18.598Z,0
2016-10-09T03:20:18.556Z,0
2016-10-09T03:21:18.220Z,0
2016-10-09T03:22:18.177Z,0
2016-10-09T03:23:17.857Z,0
2016-10-09T03:24:18.104Z,0
2016-10-09T03:25:18.366Z,0
2016-10-09T03:26:18.030Z,0
2016-10-09T03:27:18.288Z,0
2016-10-09T03:28:17.640Z,0
2016-10-09T03:29:18.217Z,0
2016-10-09T03:30:18.168Z,0
2016-10-09T03:31:18.139Z,0
2016-10-09T03:32:18.097Z,0
2016-10-09T03:33:17.457Z,0
2016-10-09T03:34:17.709Z,0
2016-10-09T03:35:17.677Z,0
2016-10-09T03:36:17.943Z,0
2016-10-09T03:37:17.898Z,0
2016-10-09T03:38:17.559Z,0
2016-10-09T03:39:17.518Z,0
2016-10-09T03:40:17.787Z,0
2016-10-09T03:41:17.744Z,0
2016-10-09T03:42:17.702Z,0
2016-10-09T03:43:17.358Z,0
2016-10-09T03:44:17.628Z,0
2016-10-09T03:45:17.587Z,0
2016-10-09T03:46:17.245Z,0
2016-10-09T03:47:17.208Z,0
2016-10-09T03:48:17.469Z,0
2016-10-09T03:49:17.440Z,0
2016-10-09T03:50:17.394Z,0
2016-10-09T03:51:17.356Z,0
2016-10-09T03:52:17.316Z,0
2016-10-09T03:53:17.276Z,0
2016-10-09T03:54:17.236Z,0
2016-10-09T03:55:16.906Z,0
2016-10-09T03:56:16.860Z,0
2016-10-09T03:57:17.121Z,0
2016-10-09T03:58:17.080Z,0
2016-10-09T03:59:17.047Z,0
2016-10-09T04:00:16.709Z,0
2016-10-09T04:01:16.958Z,0
2016-10-09T04:02:16.926Z,0
2016-10-09T04:03:16.888Z,0
2016-10-09T04:04:16.849Z,0
2016-10-09T04:05:16.501Z,0
2016-10-09T04:06:16.771Z,0
2016-10-09T04:07:16.728Z,0
2016-10-09T04:08:16.705Z,0
2016-10-09T04:09:16.658Z,0
2016-10-09T04:10:16.615Z,0
2016-10-09T04:11:16.268Z,0
2016-10-09T04:12:16.556Z,0
2016-10-09T04:13:16.197Z,0
2016-10-09T04:14:16.168Z,0
2016-10-09T04:15:16.425Z,0
2016-10-09T04:16:16.385Z,0
2016-10-09T04:17:16.046Z,0
2016-10-09T04:18:15.999Z,0
2016-10-09T04:19:15.960Z,0
2016-10-09T04:20:15.627Z,0
2016-10-09T04:21:16.186Z,0
2016-10-09T04:22:15.845Z,0
2016-10-09T04:23:16.109Z,0
2016-10-09T04:24:16.089Z,0
2016-10-09T04:25:16.034Z,0
2016-10-09T04:26:15.994Z,0
2016-10-09T04:27:15.953Z,0
2016-10-09T04:28:15.931Z,0
2016-10-09T04:29:15.594Z,0
2016-10-09T04:30:15.837Z,0
2016-10-09T04:31:15.498Z,0
2016-10-09T04:32:15.763Z,0
2016-10-09T04:33:15.414Z,0
2016-10-09T04:34:15.685Z,0
2016-10-09T04:35:15.642Z,0
2016-10-09T04:36:15.003Z,0
2016-10-09T04:37:15.257Z,0
2016-10-09T04:38:15.527Z,0
2016-10-09T04:39:15.188Z,0
2016-10-09T04:40:15.449Z,0
2016-10-09T04:41:15.416Z,0
2016-10-09T04:42:15.368Z,0
2016-10-09T04:43:15.030Z,0
2016-10-09T04:44:15.296Z,0
2016-10-09T04:45:15.266Z,0
2016-10-09T04:46:15.227Z,0
2016-10-09T04:47:15.184Z,0
2016-10-09T04:48:15.138Z,0
2016-10-09T04:49:15.100Z,0
2016-10-09T04:50:15.058Z,0
2016-10-09T04:51:15.026Z,0
2016-10-09T04:52:14.988Z,0
2016-10-09T04:53:14.644Z,0
2016-10-09T04:54:14.906Z,0
2016-10-09T04:55:14.866Z,0
2016-10-09T04:56:14.825Z,0
2016-10-09T04:57:14.792Z,0
2016-10-09T04:58:14.756Z,0
2016-10-09T04:59:14.708Z,0
2016-10-09T05:00:14.671Z,0
2016-10-09T05:01:14.340Z,0
2016-10-09T05:02:14.590Z,4
2016-10-09T05:03:14.551Z,4
2016-10-09T05:04:14.512Z,0
2016-10-09T05:05:14.179Z,4
2016-10-09T05:06:14.436Z,4
2016-10-09T05:07:14.391Z,4
2016-10-09T05:08:14.065Z,4
2016-10-09T05:09:14.318Z,4
2016-10-09T05:10:13.983Z,4
2016-10-09T05:11:14.245Z,8
2016-10-09T05:12:14.203Z,8
2016-10-09T05:13:14.168Z,8
2016-10-09T05:14:14.122Z,12
2016-10-09T05:15:14.092Z,16
2016-10-09T05:16:13.747Z,16
2016-10-09T05:17:14.010Z,24
2016-10-09T05:18:13.988Z,24
2016-10-09T05:19:13.635Z,32
2016-10-09T05:20:13.895Z,36
2016-10-09T05:21:13.558Z,44
2016-10-09T05:22:13.515Z,52
2016-10-09T05:23:13.798Z,60
2016-10-09T05:24:13.741Z,72
2016-10-09T05:25:13.700Z,88
2016-10-09T05:26:13.656Z,100
2016-10-09T05:27:13.625Z,116
2016-10-09T05:28:13.280Z,128
2016-10-09T05:29:13.553Z,148
2016-10-09T05:30:13.498Z,168
2016-10-09T05:31:13.475Z,188
2016-10-09T05:32:13.432Z,200
2016-10-09T05:33:13.392Z,212
2016-10-09T05:34:13.345Z,224
2016-10-09T05:35:13.312Z,248
2016-10-09T05:36:13.267Z,272
2016-10-09T05:37:13.243Z,296
2016-10-09T05:38:12.889Z,320
2016-10-09T05:39:12.852Z,340
2016-10-09T05:40:13.117Z,352
2016-10-09T05:41:13.077Z,372
2016-10-09T05:42:13.046Z,396
2016-10-09T05:43:13.000Z,420
2016-10-09T05:44:12.963Z,444
2016-10-09T05:45:12.920Z,476
2016-10-09T05:46:12.884Z,512
2016-10-09T05:47:12.545Z,556
2016-10-09T05:48:12.809Z,608
2016-10-09T05:49:12.472Z,668
2016-10-09T05:50:12.734Z,728
2016-10-09T05:51:12.387Z,788
2016-10-09T05:52:12.653Z,864
2016-10-09T05:53:12.307Z,948
2016-10-09T05:54:12.290Z,1028
2016-10-09T05:55:12.536Z,1056
2016-10-09T05:56:11.893Z,1076
2016-10-09T05:57:12.456Z,1120
2016-10-09T05:58:12.418Z,1188
2016-10-09T05:59:12.379Z,1260
2016-10-09T06:00:12.354Z,1316
2016-10-09T06:01:12.010Z,1368
2016-10-09T06:02:12.261Z,1440
2016-10-09T06:03:11.923Z,1496
2016-10-09T06:04:11.883Z,1532
2016-10-09T06:05:11.853Z,1548
2016-10-09T06:06:12.109Z,1564
2016-10-09T06:07:11.776Z,1588
2016-10-09T06:08:12.030Z,1604
2016-10-09T06:09:11.994Z,1648
2016-10-09T06:10:11.963Z,1728
2016-10-09T06:11:11.618Z,1804
2016-10-09T06:12:11.582Z,1904
2016-10-09T06:13:11.840Z,1988
2016-10-09T06:14:11.804Z,2036
2016-10-09T06:15:11.763Z,2092
2016-10-09T06:16:11.718Z,2076
2016-10-09T06:17:11.386Z,2128
2016-10-09T06:18:11.644Z,2300
2016-10-09T06:19:11.309Z,2380
2016-10-09T06:20:11.569Z,2304
2016-10-09T06:21:11.542Z,2260
2016-10-09T06:22:11.493Z,2264
2016-10-09T06:23:11.458Z,2292
2016-10-09T06:24:11.116Z,2316
2016-10-09T06:25:11.389Z,2332
2016-10-09T06:26:11.342Z,2288
2016-10-09T06:27:11.002Z,2248
2016-10-09T06:28:11.267Z,2244
2016-10-09T06:29:10.930Z,2260
2016-10-09T06:30:11.189Z,2292
2016-10-09T06:31:10.851Z,2328
2016-10-09T06:32:10.517Z,2252
2016-10-09T06:33:11.080Z,2244
2016-10-09T06:34:10.739Z,2268
2016-10-09T06:35:11.012Z,2300
2016-10-09T06:36:10.664Z,2344
2016-10-09T06:37:10.623Z,2380
2016-10-09T06:38:10.586Z,2432
2016-10-09T06:39:10.557Z,2496
2016-10-09T06:40:10.224Z,2568
2016-10-09T06:41:10.778Z,2664
2016-10-09T06:42:10.740Z,2768
2016-10-09T06:43:10.720Z,2860
2016-10-09T06:44:10.362Z,2912
2016-10-09T06:45:10.623Z,2936
2016-10-09T06:46:10.584Z,2940
2016-10-09T06:47:10.250Z,2952
2016-10-09T06:48:10.210Z,2992
2016-10-09T06:49:10.480Z,3048
2016-10-09T06:50:10.147Z,3112
2016-10-09T06:51:10.398Z,3184
2016-10-09T06:52:10.058Z,3256
2016-10-09T06:53:10.330Z,3328
2016-10-09T06:54:10.301Z,3420
2016-10-09T06:55:10.252Z,3556
2016-10-09T06:56:10.211Z,3716
2016-10-09T06:57:10.178Z,3900
2016-10-09T06:58:10.138Z,4140
2016-10-09T06:59:09.493Z,4264
2016-10-09T07:00:10.059Z,4316
2016-10-09T07:01:09.722Z,4284
2016-10-09T07:02:10.001Z,4244
2016-10-09T07:03:09.669Z,4176
2016-10-09T07:04:09.609Z,4084
2016-10-09T07:05:09.872Z,4168
2016-10-09T07:06:09.840Z,4420
2016-10-09T07:07:09.793Z,4828
2016-10-09T07:08:09.765Z,5224
2016-10-09T07:09:09.729Z,5948
2016-10-09T07:10:09.682Z,5732
2016-10-09T07:11:09.645Z,4948
2016-10-09T07:12:09.310Z,4932
2016-10-09T07:13:09.580Z,5172
2016-10-09T07:14:09.536Z,5496
2016-10-09T07:15:09.501Z,5832
2016-10-09T07:16:09.471Z,6196
2016-10-09T07:17:09.120Z,6148
2016-10-09T07:18:09.389Z,6128
2016-10-09T07:19:09.350Z,5948
2016-10-09T07:20:08.710Z,6016
2016-10-09T07:21:08.971Z,6208
2016-10-09T07:22:08.937Z,6464
2016-10-09T07:23:09.198Z,6608
2016-10-09T07:24:09.171Z,6760
2016-10-09T07:25:09.118Z,6884
2016-10-09T07:26:09.127Z,7048
2016-10-09T07:27:08.444Z,7452
2016-10-09T07:28:09.009Z,7776
2016-10-09T07:29:08.983Z,8188
2016-10-09T07:30:08.941Z,8624
2016-10-09T07:31:08.909Z,8976
2016-10-09T07:32:08.560Z,9048
2016-10-09T07:33:08.533Z,9112
2016-10-09T07:34:08.784Z,9444
2016-10-09T07:35:08.768Z,9556
2016-10-09T07:36:08.713Z,9916
2016-10-09T07:37:08.678Z,10320
2016-10-09T07:38:08.642Z,10764
2016-10-09T07:39:08.601Z,11028
2016-10-09T07:40:08.263Z,11468
2016-10-09T07:41:08.535Z,12040
2016-10-09T07:42:08.193Z,12652
2016-10-09T07:43:08.459Z,13208
2016-10-09T07:44:08.421Z,13372
2016-10-09T07:45:08.392Z,13388
2016-10-09T07:46:07.745Z,13332
2016-10-09T07:47:08.011Z,13220
2016-10-09T07:48:08.294Z,13392
2016-10-09T07:49:07.931Z,13764
2016-10-09T07:50:07.905Z,14032
2016-10-09T07:51:08.162Z,14152
2016-10-09T07:52:08.125Z,14108
2016-10-09T07:53:08.090Z,13940
2016-10-09T07:54:07.768Z,13972
2016-10-09T07:55:07.112Z,14652
2016-10-09T07:56:07.982Z,15516
2016-10-09T07:57:07.644Z,16704
2016-10-09T07:58:07.912Z,17440
2016-10-09T07:59:07.875Z,17376
2016-10-09T08:00:07.851Z,16768
2016-10-09T08:01:07.502Z,15756
2016-10-09T08:02:07.769Z,15068
2016-10-09T08:03:07.428Z,14704
2016-10-09T08:04:07.107Z,14548
2016-10-09T08:05:07.368Z,14800
2016-10-09T08:06:07.321Z,14704
2016-10-09T08:07:07.281Z,14528
2016-10-09T08:08:06.950Z,14348
2016-10-09T08:09:07.510Z,14100
2016-10-09T08:10:07.179Z,15488
2016-10-09T08:11:07.450Z,17024
2016-10-09T08:12:07.411Z,16172
2016-10-09T08:13:07.372Z,17376
2016-10-09T08:14:07.338Z,18720
2016-10-09T08:15:07.302Z,20160
2016-10-09T08:16:07.271Z,21152
2016-10-09T08:17:07.244Z,22368
2016-10-09T08:18:06.905Z,23104
2016-10-09T08:19:07.162Z,23232
2016-10-09T08:20:06.844Z,24032
2016-10-09T08:21:06.790Z,22176
2016-10-09T08:22:06.761Z,21760
2016-10-09T08:23:06.418Z,21792
2016-10-09T08:24:06.684Z,22080
2016-10-09T08:25:06.652Z,22752
2016-10-09T08:26:06.319Z,25376
2016-10-09T08:27:06.582Z,24608
2016-10-09T08:28:06.850Z,24800
2016-10-09T08:29:06.831Z,25536
2016-10-09T08:30:06.475Z,29408
2016-10-09T08:31:06.442Z,26752
2016-10-09T08:32:06.109Z,28032
2016-10-09T08:33:06.375Z,26848
2016-10-09T08:34:06.342Z,27328
2016-10-09T08:35:06.613Z,27872
2016-10-09T08:36:05.968Z,29600
2016-10-09T08:37:06.254Z,27872
2016-10-09T08:38:06.513Z,29376
2016-10-09T08:39:06.476Z,27936
2016-10-09T08:40:06.140Z,27136
2016-10-09T08:41:06.409Z,27328
2016-10-09T08:42:06.074Z,27712
2016-10-09T08:43:06.036Z,28000
2016-10-09T08:44:06.308Z,28352
2016-10-09T08:45:06.286Z,28800
2016-10-09T08:46:06.243Z,29344
2016-10-09T08:47:06.255Z,29856
2016-10-09T08:48:06.173Z,30592
2016-10-09T08:49:06.146Z,31648
2016-10-09T08:50:06.114Z,30912
2016-10-09T08:51:06.228Z,31328
2016-10-09T08:52:06.048Z,31104
2016-10-09T08:53:05.711Z,31168
2016-10-09T08:54:05.984Z,31456
2016-10-09T08:55:05.955Z,30848
2016-10-09T08:56:05.616Z,30240
2016-10-09T08:57:05.894Z,29664
2016-10-09T08:58:05.858Z,29120
2016-10-09T08:59:05.821Z,28512
2016-10-09T09:00:05.494Z,27840
2016-10-09T09:01:05.469Z,27296
2016-10-09T09:02:05.724Z,31232
2016-10-09T09:03:05.693Z,29344
2016-10-09T09:04:05.357Z,28288
2016-10-09T09:05:05.329Z,27232
2016-10-09T09:06:05.295Z,26592
2016-10-09T09:07:05.562Z,24864
2016-10-09T09:08:05.531Z,23840
2016-10-09T09:09:05.504Z,23520
2016-10-09T09:10:05.469Z,23456
2016-10-09T09:11:05.481Z,24672
2016-10-09T09:12:05.109Z,23552
2016-10-09T09:13:05.383Z,23104
2016-10-09T09:14:05.044Z,23008
2016-10-09T09:15:05.312Z,22720
2016-10-09T09:16:04.973Z,22912
2016-10-09T09:17:05.254Z,23392
2016-10-09T09:18:05.212Z,23392
2016-10-09T09:19:05.203Z,23168
2016-10-09T09:20:04.548Z,22816
2016-10-09T09:21:05.124Z,22048
2016-10-09T09:22:05.082Z,21344
2016-10-09T09:23:04.448Z,20768
2016-10-09T09:24:05.023Z,20096
2016-10-09T09:25:04.987Z,19616
2016-10-09T09:26:04.655Z,19264
2016-10-09T09:27:04.627Z,19008
2016-10-09T09:28:04.286Z,19040
2016-10-09T09:29:04.865Z,18944
2016-10-09T09:30:04.538Z,18592
2016-10-09T09:31:04.793Z,17664
2016-10-09T09:32:04.479Z,16312
2016-10-09T09:33:04.437Z,15732
2016-10-09T09:34:04.093Z,15912
2016-10-09T09:35:04.663Z,16552
2016-10-09T09:36:04.630Z,16928
2016-10-09T09:37:04.002Z,16992
2016-10-09T09:38:03.969Z,16476
2016-10-09T09:39:04.541Z,15968
2016-10-09T09:40:04.508Z,15800
2016-10-09T09:41:04.470Z,15716
2016-10-09T09:42:04.443Z,15876
2016-10-09T09:43:04.108Z,16028
2016-10-09T09:44:04.067Z,16140
2016-10-09T09:45:04.342Z,16276
2016-10-09T09:46:04.310Z,16304
2016-10-09T09:47:03.972Z,16300
2016-10-09T09:48:03.935Z,16396
2016-10-09T09:49:04.209Z,16380
2016-10-09T09:50:04.176Z,16256
2016-10-09T09:51:04.151Z,16392
2016-10-09T09:52:04.107Z,16464
2016-10-09T09:53:03.484Z,16504
2016-10-09T09:54:04.040Z,16684
2016-10-09T09:55:03.399Z,17120
2016-10-09T09:56:03.673Z,16992
2016-10-09T09:57:03.641Z,16156
2016-10-09T09:58:03.605Z,15412
2016-10-09T09:59:03.879Z,15044
2016-10-09T10:00:03.844Z,15036
2016-10-09T10:01:03.806Z,15284
2016-10-09T10:02:03.469Z,15484
2016-10-09T10:03:03.738Z,15836
2016-10-09T10:04:03.705Z,15948
2016-10-09T10:05:03.668Z,15844
2016-10-09T10:06:03.639Z,15268
2016-10-09T10:07:03.616Z,14436
2016-10-09T10:08:03.010Z,13936
2016-10-09T10:09:03.540Z,13100
2016-10-09T10:10:03.206Z,12524
2016-10-09T10:11:03.181Z,12336
2016-10-09T10:12:03.138Z,12352
2016-10-09T10:13:03.407Z,12164
2016-10-09T10:14:03.073Z,12068
2016-10-09T10:15:03.351Z,12252
2016-10-09T10:16:03.008Z,12760
2016-10-09T10:17:03.274Z,13704
2016-10-09T10:18:02.942Z,14536
2016-10-09T10:19:03.212Z,15060
2016-10-09T10:20:03.173Z,15548
2016-10-09T10:21:02.851Z,15664
2016-10-09T10:22:02.804Z,15636
2016-10-09T10:23:03.077Z,15652
2016-10-09T10:24:03.037Z,15520
2016-10-09T10:25:02.703Z,15504
2016-10-09T10:26:02.674Z,15616
2016-10-09T10:27:02.342Z,15820
2016-10-09T10:28:02.610Z,15960
2016-10-09T10:29:02.872Z,16112
2016-10-09T10:30:02.532Z,15992
2016-10-09T10:31:02.821Z,15604
2016-10-09T10:32:02.772Z,15064
2016-10-09T10:33:02.443Z,14696
2016-10-09T10:34:02.400Z,14728
2016-10-09T10:35:02.369Z,14728
2016-10-09T10:36:02.643Z,14712
2016-10-09T10:37:02.606Z,14688
2016-10-09T10:38:02.571Z,14596
2016-10-09T10:39:02.543Z,14600
2016-10-09T10:40:02.502Z,14316
2016-10-09T10:41:02.476Z,13844
2016-10-09T10:42:02.149Z,13384
2016-10-09T10:43:01.542Z,13040
2016-10-09T10:44:02.074Z,12784
2016-10-09T10:45:01.741Z,12980
2016-10-09T10:46:02.302Z,13204
2016-10-09T10:47:01.970Z,13132
2016-10-09T10:48:02.233Z,12972
2016-10-09T10:49:02.213Z,12724
2016-10-09T10:50:02.175Z,12524
2016-10-09T10:51:02.140Z,12420
2016-10-09T10:52:02.109Z,12692
2016-10-09T10:53:01.478Z,13368
2016-10-09T10:54:02.045Z,14200
2016-10-09T10:55:01.715Z,14996
2016-10-09T10:56:01.671Z,15524
2016-10-09T10:57:01.335Z,15880
2016-10-09T10:58:01.908Z,16228
2016-10-09T10:59:01.574Z,16348
2016-10-09T11:00:01.842Z,16160
2016-10-09T11:01:01.215Z,15764
2016-10-09T11:02:01.479Z,15376
2016-10-09T11:03:01.437Z,15464
2016-10-09T11:04:01.728Z,15416
2016-10-09T11:05:01.384Z,15372
2016-10-09T11:06:01.343Z,15256
2016-10-09T11:07:01.614Z,15352
2016-10-09T11:08:01.284Z,15472
2016-10-09T11:09:01.547Z,15828
2016-10-09T11:10:01.515Z,16544
2016-10-09T11:11:01.180Z,17408
2016-10-09T11:12:01.149Z,17984
2016-10-09T11:13:01.122Z,18112
2016-10-09T11:14:01.384Z,18144
2016-10-09T11:15:00.750Z,18272
2016-10-09T11:16:01.014Z,18432
2016-10-09T11:17:00.990Z,18464
2016-10-09T11:18:01.250Z,18048
2016-10-09T11:19:00.917Z,17664
2016-10-09T11:20:00.942Z,17088
2016-10-09T11:21:01.154Z,16896
2016-10-09T11:22:01.131Z,17056
2016-10-09T11:23:00.483Z,17536
2016-10-09T11:24:00.757Z,17760
2016-10-09T11:25:01.027Z,18112
2016-10-09T11:26:00.696Z,18304
2016-10-09T11:27:00.963Z,18336
2016-10-09T11:28:00.932Z,18560
2016-10-09T11:29:00.593Z,18912
2016-10-09T11:30:00.865Z,18656
2016-10-09T11:31:00.850Z,18912
2016-10-09T11:32:00.510Z,19136
2016-10-09T11:33:00.775Z,19776
2016-10-09T11:34:00.753Z,19264
2016-10-09T11:35:00.751Z,19232
2016-10-09T11:36:00.681Z,19200
2016-10-09T11:37:00.637Z,19328
2016-10-09T11:38:00.308Z,19552
2016-10-09T11:39:00.276Z,19264
2016-10-09T11:39:59.948Z,19104
2016-10-09T11:41:00.213Z,18624
2016-10-09T11:42:00.481Z,17888
2016-10-09T11:43:00.458Z,17312
2016-10-09T11:44:00.121Z,16468
2016-10-09T11:45:00.392Z,16992
2016-10-09T11:46:00.062Z,17312
2016-10-09T11:47:00.330Z,16928
2016-10-09T11:48:00.316Z,17088
2016-10-09T11:49:00.268Z,17344
2016-10-09T11:49:59.627Z,17120
2016-10-09T11:51:00.205Z,15552
2016-10-09T11:52:00.184Z,14148
2016-10-09T11:52:59.834Z,13656
2016-10-09T11:53:59.800Z,13152
2016-10-09T11:54:59.770Z,13392
2016-10-09T11:55:59.739Z,14012
2016-10-09T11:57:00.016Z,13928
2016-10-09T11:57:59.978Z,13436
2016-10-09T11:58:59.647Z,13256
2016-10-09T11:59:59.311Z,13176
2016-10-09T12:00:59.881Z,13532
2016-10-09T12:01:59.849Z,14228
2016-10-09T12:02:59.823Z,14560
2016-10-09T12:03:59.791Z,15088
2016-10-09T12:04:59.773Z,15252
2016-10-09T12:05:59.116Z,15208
2016-10-09T12:06:59.394Z,14876
2016-10-09T12:07:59.358Z,13684
2016-10-09T12:08:59.335Z,12680
2016-10-09T12:09:58.994Z,12232
2016-10-09T12:10:59.269Z,12760
2016-10-09T12:11:59.536Z,13400
2016-10-09T12:12:59.523Z,13988
2016-10-09T12:13:59.469Z,14116
2016-10-09T12:14:59.452Z,14048
2016-10-09T12:15:59.405Z,13712
2016-10-09T12:16:59.074Z,12628
2016-10-09T12:17:58.745Z,11648
2016-10-09T12:18:59.011Z,11248
2016-10-09T12:19:59.293Z,11068
2016-10-09T12:20:58.947Z,11040
2016-10-09T12:21:58.911Z,11252
2016-10-09T12:22:59.190Z,10912
2016-10-09T12:23:59.153Z,9956
2016-10-09T12:24:59.125Z,9212
2016-10-09T12:25:58.783Z,8652
2016-10-09T12:26:58.755Z,8488
2016-10-09T12:27:58.723Z,8392
2016-10-09T12:28:58.703Z,8344
2016-10-09T12:29:58.958Z,8200
2016-10-09T12:30:58.633Z,8276
2016-10-09T12:31:58.596Z,8404
2016-10-09T12:32:58.570Z,8432
2016-10-09T12:33:58.526Z,8548
2016-10-09T12:34:58.799Z,8636
2016-10-09T12:35:58.481Z,8940
2016-10-09T12:36:58.740Z,9452
2016-10-09T12:37:58.094Z,10004
2016-10-09T12:38:58.367Z,10200
2016-10-09T12:39:58.635Z,10116
2016-10-09T12:40:58.602Z,10252
2016-10-09T12:41:57.668Z,10696
2016-10-09T12:42:58.547Z,10212
2016-10-09T12:43:58.505Z,9400
2016-10-09T12:44:58.485Z,8924
2016-10-09T12:45:58.445Z,8256
2016-10-09T12:46:58.113Z,8000
2016-10-09T12:47:58.382Z,7720
2016-10-09T12:48:58.365Z,7532
2016-10-09T12:49:58.005Z,7660
2016-10-09T12:50:58.291Z,8132
2016-10-09T12:51:58.241Z,8848
2016-10-09T12:52:58.228Z,9568
2016-10-09T12:53:57.870Z,10068
2016-10-09T12:54:58.161Z,10028
2016-10-09T12:55:57.815Z,9496
2016-10-09T12:56:58.079Z,9244
2016-10-09T12:57:57.739Z,9140
2016-10-09T12:58:57.717Z,9012
2016-10-09T12:59:57.674Z,8652
2016-10-09T13:00:57.644Z,8364
2016-10-09T13:01:57.608Z,8284
2016-10-09T13:02:57.576Z,8188
2016-10-09T13:03:57.848Z,7984
2016-10-09T13:04:57.509Z,7736
2016-10-09T13:05:57.478Z,7596
2016-10-09T13:06:57.451Z,7432
2016-10-09T13:07:57.403Z,7184
2016-10-09T13:08:57.375Z,7096
2016-10-09T13:09:57.334Z,7096
2016-10-09T13:10:57.309Z,7120
2016-10-09T13:11:57.268Z,7280
2016-10-09T13:12:57.548Z,7236
2016-10-09T13:13:57.205Z,7124
2016-10-09T13:14:57.174Z,7012
2016-10-09T13:15:57.436Z,6844
2016-10-09T13:16:57.404Z,6748
2016-10-09T13:17:57.064Z,6668
2016-10-09T13:18:57.033Z,6736
2016-10-09T13:19:56.997Z,6848
2016-10-09T13:20:57.286Z,6916
2016-10-09T13:21:57.235Z,6908
2016-10-09T13:22:57.206Z,6940
2016-10-09T13:23:57.163Z,6908
2016-10-09T13:24:57.133Z,6924
2016-10-09T13:25:56.799Z,7028
2016-10-09T13:26:57.068Z,7248
2016-10-09T13:27:57.028Z,7624
2016-10-09T13:28:56.692Z,7852
2016-10-09T13:29:56.966Z,7932
2016-10-09T13:30:56.329Z,7968
2016-10-09T13:31:56.292Z,7968
2016-10-09T13:32:56.857Z,7876
2016-10-09T13:33:56.519Z,7560
2016-10-09T13:34:56.210Z,7444
2016-10-09T13:35:56.759Z,7388
2016-10-09T13:36:56.739Z,7260
2016-10-09T13:37:56.689Z,7180
2016-10-09T13:38:56.715Z,7180
2016-10-09T13:39:56.622Z,7204
2016-10-09T13:40:56.596Z,7240